Trade Lake, Wisconsin
Current Conditions -  °F | °C
As of 4:15 AM on Tuesday 27 Jan 2015 (Local Time) from KRZN Reporting Station
Overcast Overcast  
Wind Chill: 29°   Ceiling: 2100
Heat Index: 29°   Visibility: 10mi
Dew Point: 22°   Wind: 3mph
Humidity: 76%   Direction: 30°NNE
Pressure: 30.08"   Gusts: NA
Location:  45.6678°N, 92.363°W
Report Text: KRZN 271015Z AUTO 03003KT 10SM OVC021 M02/M05 A3008 RMK AO2 T10161053
Loading
Personal Weather Stations






























Interactive Weather Map New forecast layout! Learn more

10-Day Weather Forecast

Advertisements
Track Severe Weather on mobile